sensor_id;sensor_type;location;lat;lon;timestamp;P1;durP1;ratioP1;P2;durP2;ratioP2
64375;SDS011;50700;55.416;12.952;2023-05-23T00:01:10;3.53;;;2.92;;
64375;SDS011;50700;55.416;12.952;2023-05-23T00:03:39;6.45;;;3.25;;
64375;SDS011;50700;55.416;12.952;2023-05-23T00:06:05;5.88;;;3.30;;
64375;SDS011;50700;55.416;12.952;2023-05-23T00:08:31;5.95;;;3.20;;
64375;SDS011;50700;55.416;12.952;2023-05-23T00:10:57;3.55;;;2.80;;
64375;SDS011;50700;55.416;12.952;2023-05-23T00:13:24;3.75;;;2.85;;
64375;SDS011;50700;55.416;12.952;2023-05-23T00:15:50;4.70;;;3.10;;
64375;SDS011;50700;55.416;12.952;2023-05-23T00:18:17;5.95;;;3.22;;
64375;SDS011;50700;55.416;12.952;2023-05-23T00:20:43;4.78;;;2.40;;
64375;SDS011;50700;55.416;12.952;2023-05-23T00:23:10;6.57;;;3.10;;
64375;SDS011;50700;55.416;12.952;2023-05-23T00:25:43;6.38;;;3.25;;
64375;SDS011;50700;55.416;12.952;2023-05-23T00:28:12;4.13;;;2.97;;
64375;SDS011;50700;55.416;12.952;2023-05-23T00:30:40;5.88;;;3.28;;
64375;SDS011;50700;55.416;12.952;2023-05-23T00:33:06;4.43;;;3.10;;
64375;SDS011;50700;55.416;12.952;2023-05-23T00:35:33;4.82;;;3.10;;
64375;SDS011;50700;55.416;12.952;2023-05-23T00:37:59;6.68;;;2.95;;
64375;SDS011;50700;55.416;12.952;2023-05-23T00:40:26;6.40;;;2.88;;
64375;SDS011;50700;55.416;12.952;2023-05-23T00:42:52;5.35;;;3.20;;
64375;SDS011;50700;55.416;12.952;2023-05-23T00:45:18;4.85;;;2.85;;
64375;SDS011;50700;55.416;12.952;2023-05-23T00:47:45;4.50;;;2.80;;
64375;SDS011;50700;55.416;12.952;2023-05-23T00:50:12;5.65;;;2.70;;
64375;SDS011;50700;55.416;12.952;2023-05-23T00:52:38;5.07;;;2.75;;
64375;SDS011;50700;55.416;12.952;2023-05-23T00:55:05;4.68;;;3.10;;
64375;SDS011;50700;55.416;12.952;2023-05-23T00:57:32;4.70;;;3.17;;
64375;SDS011;50700;55.416;12.952;2023-05-23T00:59:59;6.25;;;3.28;;
64375;SDS011;50700;55.416;12.952;2023-05-23T01:02:26;4.40;;;2.75;;
64375;SDS011;50700;55.416;12.952;2023-05-23T01:04:52;5.60;;;2.80;;
64375;SDS011;50700;55.416;12.952;2023-05-23T01:07:20;3.75;;;3.15;;
64375;SDS011;50700;55.416;12.952;2023-05-23T01:09:47;4.93;;;2.65;;
64375;SDS011;50700;55.416;12.952;2023-05-23T01:12:24;5.57;;;2.67;;
64375;SDS011;50700;55.416;12.952;2023-05-23T01:15:08;7.05;;;2.90;;
64375;SDS011;50700;55.416;12.952;2023-05-23T01:20:06;7.88;;;2.60;;
64375;SDS011;50700;55.416;12.952;2023-05-23T01:27:56;5.05;;;3.15;;
64375;SDS011;50700;55.416;12.952;2023-05-23T01:30:24;4.40;;;3.00;;
64375;SDS011;50700;55.416;12.952;2023-05-23T01:32:52;3.88;;;2.83;;
64375;SDS011;50700;55.416;12.952;2023-05-23T01:35:25;6.13;;;2.88;;
64375;SDS011;50700;55.416;12.952;2023-05-23T01:40:18;4.82;;;2.75;;
64375;SDS011;50700;55.416;12.952;2023-05-23T01:42:44;4.70;;;2.63;;
64375;SDS011;50700;55.416;12.952;2023-05-23T01:45:11;4.40;;;2.83;;
64375;SDS011;50700;55.416;12.952;2023-05-23T01:47:37;5.82;;;3.00;;
64375;SDS011;50700;55.416;12.952;2023-05-23T01:50:05;5.20;;;2.55;;
64375;SDS011;50700;55.416;12.952;2023-05-23T01:52:32;3.40;;;2.80;;
64375;SDS011;50700;55.416;12.952;2023-05-23T01:54:58;4.57;;;2.53;;
64375;SDS011;50700;55.416;12.952;2023-05-23T01:57:25;3.78;;;2.97;;
64375;SDS011;50700;55.416;12.952;2023-05-23T01:59:54;4.95;;;2.83;;
64375;SDS011;50700;55.416;12.952;2023-05-23T02:02:20;3.17;;;2.50;;
64375;SDS011;50700;55.416;12.952;2023-05-23T02:04:48;4.15;;;3.10;;
64375;SDS011;50700;55.416;12.952;2023-05-23T02:07:14;3.55;;;2.83;;
64375;SDS011;50700;55.416;12.952;2023-05-23T02:09:40;6.93;;;2.83;;
64375;SDS011;50700;55.416;12.952;2023-05-23T02:12:06;4.55;;;2.95;;
64375;SDS011;50700;55.416;12.952;2023-05-23T02:14:33;3.75;;;2.60;;
64375;SDS011;50700;55.416;12.952;2023-05-23T02:17:01;5.50;;;2.80;;
64375;SDS011;50700;55.416;12.952;2023-05-23T02:19:28;4.78;;;2.80;;
64375;SDS011;50700;55.416;12.952;2023-05-23T02:21:54;3.65;;;2.85;;
64375;SDS011;50700;55.416;12.952;2023-05-23T02:24:20;3.50;;;2.50;;
64375;SDS011;50700;55.416;12.952;2023-05-23T02:26:46;4.85;;;2.92;;
64375;SDS011;50700;55.416;12.952;2023-05-23T02:29:13;4.03;;;2.55;;
64375;SDS011;50700;55.416;12.952;2023-05-23T02:31:39;4.25;;;2.75;;
64375;SDS011;50700;55.416;12.952;2023-05-23T02:34:05;5.43;;;3.00;;
64375;SDS011;50700;55.416;12.952;2023-05-23T02:36:31;4.28;;;3.10;;
64375;SDS011;50700;55.416;12.952;2023-05-23T02:38:58;4.60;;;2.88;;
64375;SDS011;50700;55.416;12.952;2023-05-23T02:41:24;4.10;;;2.88;;
64375;SDS011;50700;55.416;12.952;2023-05-23T02:43:51;6.13;;;3.00;;
64375;SDS011;50700;55.416;12.952;2023-05-23T02:46:17;9.80;;;3.30;;
64375;SDS011;50700;55.416;12.952;2023-05-23T02:48:43;5.03;;;2.90;;
64375;SDS011;50700;55.416;12.952;2023-05-23T02:51:09;4.38;;;2.70;;
64375;SDS011;50700;55.416;12.952;2023-05-23T02:53:38;5.72;;;2.90;;
64375;SDS011;50700;55.416;12.952;2023-05-23T02:56:04;5.28;;;3.55;;
64375;SDS011;50700;55.416;12.952;2023-05-23T02:58:32;5.57;;;2.90;;
64375;SDS011;50700;55.416;12.952;2023-05-23T03:01:03;2.85;;;2.58;;
64375;SDS011;50700;55.416;12.952;2023-05-23T03:03:29;6.25;;;2.95;;
64375;SDS011;50700;55.416;12.952;2023-05-23T03:05:58;4.03;;;2.42;;
64375;SDS011;50700;55.416;12.952;2023-05-23T03:08:24;5.40;;;3.25;;
64375;SDS011;50700;55.416;12.952;2023-05-23T03:10:51;6.97;;;3.13;;
64375;SDS011;50700;55.416;12.952;2023-05-23T03:13:17;4.93;;;3.00;;
64375;SDS011;50700;55.416;12.952;2023-05-23T03:15:43;5.65;;;3.20;;
64375;SDS011;50700;55.416;12.952;2023-05-23T03:18:10;4.22;;;3.03;;
64375;SDS011;50700;55.416;12.952;2023-05-23T03:20:36;5.13;;;3.20;;
64375;SDS011;50700;55.416;12.952;2023-05-23T03:23:03;6.60;;;2.80;;
64375;SDS011;50700;55.416;12.952;2023-05-23T03:25:29;5.15;;;2.80;;
64375;SDS011;50700;55.416;12.952;2023-05-23T03:27:55;4.85;;;2.85;;
64375;SDS011;50700;55.416;12.952;2023-05-23T03:30:22;4.50;;;2.60;;
64375;SDS011;50700;55.416;12.952;2023-05-23T03:32:48;5.70;;;2.58;;
64375;SDS011;50700;55.416;12.952;2023-05-23T03:35:14;5.90;;;2.83;;
64375;SDS011;50700;55.416;12.952;2023-05-23T03:37:40;3.90;;;2.53;;
64375;SDS011;50700;55.416;12.952;2023-05-23T03:40:07;6.65;;;3.00;;
64375;SDS011;50700;55.416;12.952;2023-05-23T03:42:34;6.22;;;2.97;;
64375;SDS011;50700;55.416;12.952;2023-05-23T03:45:01;4.47;;;2.58;;
64375;SDS011;50700;55.416;12.952;2023-05-23T03:47:27;4.70;;;3.22;;
64375;SDS011;50700;55.416;12.952;2023-05-23T03:49:53;5.90;;;3.20;;
64375;SDS011;50700;55.416;12.952;2023-05-23T03:52:19;3.70;;;2.72;;
64375;SDS011;50700;55.416;12.952;2023-05-23T03:54:45;8.82;;;3.08;;
64375;SDS011;50700;55.416;12.952;2023-05-23T03:57:12;7.63;;;2.92;;
64375;SDS011;50700;55.416;12.952;2023-05-23T03:59:38;4.57;;;3.08;;
64375;SDS011;50700;55.416;12.952;2023-05-23T04:02:04;3.97;;;2.60;;
64375;SDS011;50700;55.416;12.952;2023-05-23T04:04:30;4.10;;;2.70;;
64375;SDS011;50700;55.416;12.952;2023-05-23T04:06:58;4.18;;;2.78;;
64375;SDS011;50700;55.416;12.952;2023-05-23T04:09:25;3.88;;;2.78;;
64375;SDS011;50700;55.416;12.952;2023-05-23T04:11:52;3.45;;;2.47;;
64375;SDS011;50700;55.416;12.952;2023-05-23T04:14:18;3.35;;;2.83;;
64375;SDS011;50700;55.416;12.952;2023-05-23T04:16:46;7.88;;;3.30;;
64375;SDS011;50700;55.416;12.952;2023-05-23T04:19:12;5.95;;;2.83;;
64375;SDS011;50700;55.416;12.952;2023-05-23T04:21:39;3.42;;;2.63;;
64375;SDS011;50700;55.416;12.952;2023-05-23T04:24:05;6.20;;;3.13;;
64375;SDS011;50700;55.416;12.952;2023-05-23T04:26:32;8.13;;;3.47;;
64375;SDS011;50700;55.416;12.952;2023-05-23T04:29:00;7.28;;;3.00;;
64375;SDS011;50700;55.416;12.952;2023-05-23T04:31:26;6.88;;;3.75;;
64375;SDS011;50700;55.416;12.952;2023-05-23T04:33:52;6.28;;;3.40;;
64375;SDS011;50700;55.416;12.952;2023-05-23T04:36:19;4.47;;;3.13;;
64375;SDS011;50700;55.416;12.952;2023-05-23T04:38:47;5.80;;;3.20;;
64375;SDS011;50700;55.416;12.952;2023-05-23T04:41:14;6.03;;;3.55;;
64375;SDS011;50700;55.416;12.952;2023-05-23T04:43:40;6.30;;;3.45;;
64375;SDS011;50700;55.416;12.952;2023-05-23T04:46:09;5.25;;;3.17;;
64375;SDS011;50700;55.416;12.952;2023-05-23T04:48:38;3.67;;;3.00;;
64375;SDS011;50700;55.416;12.952;2023-05-23T04:51:04;5.40;;;3.15;;
64375;SDS011;50700;55.416;12.952;2023-05-23T04:53:32;5.68;;;3.35;;
64375;SDS011;50700;55.416;12.952;2023-05-23T04:55:59;5.55;;;2.97;;
64375;SDS011;50700;55.416;12.952;2023-05-23T04:58:25;6.55;;;3.47;;
64375;SDS011;50700;55.416;12.952;2023-05-23T05:00:51;13.45;;;3.97;;
64375;SDS011;50700;55.416;12.952;2023-05-23T05:03:17;4.82;;;3.50;;
64375;SDS011;50700;55.416;12.952;2023-05-23T05:05:44;4.75;;;3.20;;
64375;SDS011;50700;55.416;12.952;2023-05-23T05:08:10;4.90;;;3.42;;
64375;SDS011;50700;55.416;12.952;2023-05-23T05:10:39;6.45;;;3.17;;
64375;SDS011;50700;55.416;12.952;2023-05-23T05:13:05;6.32;;;3.30;;
64375;SDS011;50700;55.416;12.952;2023-05-23T05:15:32;5.43;;;3.03;;
64375;SDS011;50700;55.416;12.952;2023-05-23T05:17:58;5.63;;;3.30;;
64375;SDS011;50700;55.416;12.952;2023-05-23T05:20:24;4.65;;;3.20;;
64375;SDS011;50700;55.416;12.952;2023-05-23T05:22:54;4.88;;;3.20;;
64375;SDS011;50700;55.416;12.952;2023-05-23T05:25:21;5.75;;;3.25;;
64375;SDS011;50700;55.416;12.952;2023-05-23T05:27:48;8.32;;;3.53;;
64375;SDS011;50700;55.416;12.952;2023-05-23T05:30:14;7.97;;;3.45;;
64375;SDS011;50700;55.416;12.952;2023-05-23T05:32:40;5.53;;;3.03;;
64375;SDS011;50700;55.416;12.952;2023-05-23T05:35:10;4.93;;;3.13;;
64375;SDS011;50700;55.416;12.952;2023-05-23T05:37:39;7.15;;;2.80;;
64375;SDS011;50700;55.416;12.952;2023-05-23T05:40:05;6.03;;;3.20;;
64375;SDS011;50700;55.416;12.952;2023-05-23T05:42:32;6.05;;;3.55;;
64375;SDS011;50700;55.416;12.952;2023-05-23T05:44:59;4.43;;;3.13;;
64375;SDS011;50700;55.416;12.952;2023-05-23T05:47:25;6.63;;;3.42;;
64375;SDS011;50700;55.416;12.952;2023-05-23T05:49:52;5.20;;;3.25;;
64375;SDS011;50700;55.416;12.952;2023-05-23T05:52:19;8.27;;;3.78;;
64375;SDS011;50700;55.416;12.952;2023-05-23T05:54:45;3.63;;;2.95;;
64375;SDS011;50700;55.416;12.952;2023-05-23T05:57:11;5.63;;;3.20;;
64375;SDS011;50700;55.416;12.952;2023-05-23T05:59:37;6.25;;;3.60;;
64375;SDS011;50700;55.416;12.952;2023-05-23T06:02:04;5.65;;;3.38;;
64375;SDS011;50700;55.416;12.952;2023-05-23T06:04:30;5.32;;;3.00;;
64375;SDS011;50700;55.416;12.952;2023-05-23T06:06:57;8.05;;;3.40;;
64375;SDS011;50700;55.416;12.952;2023-05-23T06:09:23;5.03;;;3.78;;
64375;SDS011;50700;55.416;12.952;2023-05-23T06:11:49;5.90;;;3.33;;
64375;SDS011;50700;55.416;12.952;2023-05-23T06:14:15;6.18;;;3.30;;
64375;SDS011;50700;55.416;12.952;2023-05-23T06:16:42;5.80;;;3.25;;
64375;SDS011;50700;55.416;12.952;2023-05-23T06:19:08;7.68;;;3.40;;
64375;SDS011;50700;55.416;12.952;2023-05-23T06:21:34;6.03;;;3.22;;
64375;SDS011;50700;55.416;12.952;2023-05-23T06:24:00;5.85;;;3.30;;
64375;SDS011;50700;55.416;12.952;2023-05-23T06:26:26;4.97;;;3.17;;
64375;SDS011;50700;55.416;12.952;2023-05-23T06:28:52;5.60;;;3.50;;
64375;SDS011;50700;55.416;12.952;2023-05-23T06:31:18;6.88;;;3.45;;
64375;SDS011;50700;55.416;12.952;2023-05-23T06:33:45;4.72;;;3.58;;
64375;SDS011;50700;55.416;12.952;2023-05-23T06:36:11;6.45;;;3.58;;
64375;SDS011;50700;55.416;12.952;2023-05-23T06:38:37;6.10;;;3.58;;
64375;SDS011;50700;55.416;12.952;2023-05-23T06:41:03;3.67;;;2.95;;
64375;SDS011;50700;55.416;12.952;2023-05-23T06:43:31;6.20;;;3.92;;
64375;SDS011;50700;55.416;12.952;2023-05-23T06:45:57;3.88;;;3.08;;
64375;SDS011;50700;55.416;12.952;2023-05-23T06:48:23;6.55;;;3.50;;
64375;SDS011;50700;55.416;12.952;2023-05-23T06:50:50;5.90;;;3.42;;
64375;SDS011;50700;55.416;12.952;2023-05-23T06:53:16;6.10;;;3.10;;
64375;SDS011;50700;55.416;12.952;2023-05-23T06:55:42;6.13;;;3.47;;
64375;SDS011;50700;55.416;12.952;2023-05-23T06:58:08;4.90;;;3.10;;
64375;SDS011;50700;55.416;12.952;2023-05-23T07:00:35;6.20;;;3.50;;
64375;SDS011;50700;55.416;12.952;2023-05-23T07:03:02;6.05;;;3.67;;
64375;SDS011;50700;55.416;12.952;2023-05-23T07:05:29;4.57;;;3.25;;
64375;SDS011;50700;55.416;12.952;2023-05-23T07:07:57;4.97;;;3.30;;
64375;SDS011;50700;55.416;12.952;2023-05-23T07:10:23;6.60;;;3.38;;
64375;SDS011;50700;55.416;12.952;2023-05-23T07:12:50;5.60;;;3.65;;
64375;SDS011;50700;55.416;12.952;2023-05-23T07:15:16;6.28;;;3.05;;
64375;SDS011;50700;55.416;12.952;2023-05-23T07:17:43;6.28;;;3.80;;
64375;SDS011;50700;55.416;12.952;2023-05-23T07:20:09;5.55;;;3.80;;
64375;SDS011;50700;55.416;12.952;2023-05-23T07:22:35;5.40;;;3.60;;
64375;SDS011;50700;55.416;12.952;2023-05-23T07:25:01;10.15;;;3.83;;
64375;SDS011;50700;55.416;12.952;2023-05-23T07:27:28;6.25;;;3.35;;
64375;SDS011;50700;55.416;12.952;2023-05-23T07:29:54;8.07;;;3.35;;
64375;SDS011;50700;55.416;12.952;2023-05-23T07:32:21;6.50;;;3.70;;
64375;SDS011;50700;55.416;12.952;2023-05-23T07:34:48;6.65;;;3.42;;
64375;SDS011;50700;55.416;12.952;2023-05-23T07:37:14;5.30;;;3.45;;
64375;SDS011;50700;55.416;12.952;2023-05-23T07:39:40;10.02;;;4.43;;
64375;SDS011;50700;55.416;12.952;2023-05-23T07:42:06;11.15;;;3.88;;
64375;SDS011;50700;55.416;12.952;2023-05-23T07:44:32;5.68;;;3.42;;
64375;SDS011;50700;55.416;12.952;2023-05-23T07:46:59;6.40;;;3.50;;
64375;SDS011;50700;55.416;12.952;2023-05-23T07:49:25;6.80;;;3.38;;
64375;SDS011;50700;55.416;12.952;2023-05-23T07:51:51;4.80;;;3.30;;
64375;SDS011;50700;55.416;12.952;2023-05-23T07:54:17;7.72;;;3.83;;
64375;SDS011;50700;55.416;12.952;2023-05-23T07:56:43;6.15;;;3.50;;
64375;SDS011;50700;55.416;12.952;2023-05-23T07:59:10;9.88;;;4.45;;
64375;SDS011;50700;55.416;12.952;2023-05-23T08:01:36;5.18;;;3.70;;
64375;SDS011;50700;55.416;12.952;2023-05-23T08:04:02;6.93;;;4.43;;
64375;SDS011;50700;55.416;12.952;2023-05-23T08:06:28;5.90;;;3.70;;
64375;SDS011;50700;55.416;12.952;2023-05-23T08:08:55;6.85;;;3.75;;
64375;SDS011;50700;55.416;12.952;2023-05-23T08:11:22;7.13;;;3.90;;
64375;SDS011;50700;55.416;12.952;2023-05-23T08:13:48;4.85;;;3.88;;
64375;SDS011;50700;55.416;12.952;2023-05-23T08:16:14;5.82;;;4.10;;
64375;SDS011;50700;55.416;12.952;2023-05-23T08:18:40;6.45;;;3.83;;
64375;SDS011;50700;55.416;12.952;2023-05-23T08:21:06;6.10;;;4.13;;
64375;SDS011;50700;55.416;12.952;2023-05-23T08:23:32;12.90;;;5.22;;
64375;SDS011;50700;55.416;12.952;2023-05-23T08:25:58;7.13;;;4.03;;
64375;SDS011;50700;55.416;12.952;2023-05-23T08:28:25;5.68;;;3.90;;
64375;SDS011;50700;55.416;12.952;2023-05-23T08:30:51;6.97;;;4.25;;
64375;SDS011;50700;55.416;12.952;2023-05-23T08:33:18;8.40;;;4.05;;
64375;SDS011;50700;55.416;12.952;2023-05-23T08:35:44;5.82;;;4.07;;
64375;SDS011;50700;55.416;12.952;2023-05-23T08:38:10;9.60;;;3.72;;
64375;SDS011;50700;55.416;12.952;2023-05-23T08:40:37;7.82;;;4.53;;
64375;SDS011;50700;55.416;12.952;2023-05-23T08:43:04;6.63;;;4.25;;
64375;SDS011;50700;55.416;12.952;2023-05-23T08:45:31;7.45;;;4.50;;
64375;SDS011;50700;55.416;12.952;2023-05-23T08:47:59;9.20;;;4.38;;
64375;SDS011;50700;55.416;12.952;2023-05-23T08:50:27;6.32;;;4.30;;
64375;SDS011;50700;55.416;12.952;2023-05-23T08:52:55;12.77;;;5.57;;
64375;SDS011;50700;55.416;12.952;2023-05-23T08:55:25;12.32;;;5.00;;
64375;SDS011;50700;55.416;12.952;2023-05-23T08:57:52;10.13;;;4.47;;
64375;SDS011;50700;55.416;12.952;2023-05-23T09:00:19;12.27;;;5.47;;
64375;SDS011;50700;55.416;12.952;2023-05-23T09:02:46;9.50;;;5.60;;
64375;SDS011;50700;55.416;12.952;2023-05-23T09:05:12;6.20;;;4.70;;
64375;SDS011;50700;55.416;12.952;2023-05-23T09:07:39;7.03;;;4.72;;
64375;SDS011;50700;55.416;12.952;2023-05-23T09:10:06;8.48;;;4.85;;
64375;SDS011;50700;55.416;12.952;2023-05-23T09:12:33;9.18;;;4.90;;
64375;SDS011;50700;55.416;12.952;2023-05-23T09:15:04;7.30;;;4.72;;
64375;SDS011;50700;55.416;12.952;2023-05-23T09:17:30;7.40;;;4.82;;
64375;SDS011;50700;55.416;12.952;2023-05-23T09:19:58;8.32;;;5.07;;
64375;SDS011;50700;55.416;12.952;2023-05-23T09:22:26;7.00;;;5.00;;
64375;SDS011;50700;55.416;12.952;2023-05-23T09:24:53;5.57;;;4.13;;
64375;SDS011;50700;55.416;12.952;2023-05-23T09:27:20;6.45;;;4.65;;
64375;SDS011;50700;55.416;12.952;2023-05-23T09:29:47;8.82;;;4.50;;
64375;SDS011;50700;55.416;12.952;2023-05-23T09:32:17;8.32;;;5.00;;
64375;SDS011;50700;55.416;12.952;2023-05-23T09:34:59;8.30;;;5.13;;
64375;SDS011;50700;55.416;12.952;2023-05-23T09:37:30;8.45;;;4.60;;
64375;SDS011;50700;55.416;12.952;2023-05-23T09:40:04;7.03;;;4.63;;
64375;SDS011;50700;55.416;12.952;2023-05-23T09:42:31;7.80;;;4.50;;
64375;SDS011;50700;55.416;12.952;2023-05-23T09:44:58;7.70;;;4.45;;
64375;SDS011;50700;55.416;12.952;2023-05-23T09:47:24;7.20;;;4.57;;
64375;SDS011;50700;55.416;12.952;2023-05-23T09:49:54;5.47;;;4.93;;
64375;SDS011;50700;55.416;12.952;2023-05-23T09:52:20;5.53;;;4.53;;
64375;SDS011;50700;55.416;12.952;2023-05-23T09:54:46;8.02;;;3.88;;
64375;SDS011;50700;55.416;12.952;2023-05-23T09:57:15;6.00;;;3.88;;
64375;SDS011;50700;55.416;12.952;2023-05-23T09:59:44;11.68;;;4.28;;
64375;SDS011;50700;55.416;12.952;2023-05-23T10:02:14;4.97;;;4.07;;
64375;SDS011;50700;55.416;12.952;2023-05-23T10:04:41;8.60;;;5.03;;
64375;SDS011;50700;55.416;12.952;2023-05-23T10:07:16;5.72;;;3.97;;
64375;SDS011;50700;55.416;12.952;2023-05-23T10:09:44;6.25;;;3.63;;
64375;SDS011;50700;55.416;12.952;2023-05-23T10:15:03;9.65;;;4.78;;
64375;SDS011;50700;55.416;12.952;2023-05-23T10:20:03;4.83;;;3.43;;
64375;SDS011;50700;55.416;12.952;2023-05-23T10:22:33;8.50;;;4.30;;
64375;SDS011;50700;55.416;12.952;2023-05-23T10:25:02;8.45;;;3.95;;
64375;SDS011;50700;55.416;12.952;2023-05-23T10:27:30;5.85;;;3.90;;
64375;SDS011;50700;55.416;12.952;2023-05-23T10:29:56;7.13;;;4.55;;
64375;SDS011;50700;55.416;12.952;2023-05-23T10:32:22;7.30;;;4.20;;
64375;SDS011;50700;55.416;12.952;2023-05-23T10:34:55;6.63;;;3.58;;
64375;SDS011;50700;55.416;12.952;2023-05-23T10:39:56;6.75;;;3.95;;
64375;SDS011;50700;55.416;12.952;2023-05-23T10:44:51;6.65;;;4.40;;
64375;SDS011;50700;55.416;12.952;2023-05-23T10:47:26;7.50;;;4.20;;
64375;SDS011;50700;55.416;12.952;2023-05-23T10:49:53;8.98;;;5.18;;
64375;SDS011;50700;55.416;12.952;2023-05-23T10:52:20;6.28;;;3.97;;
64375;SDS011;50700;55.416;12.952;2023-05-23T10:54:53;10.75;;;4.40;;
64375;SDS011;50700;55.416;12.952;2023-05-23T10:57:29;7.50;;;4.93;;
64375;SDS011;50700;55.416;12.952;2023-05-23T10:59:55;5.05;;;3.78;;
64375;SDS011;50700;55.416;12.952;2023-05-23T11:02:25;5.20;;;4.18;;
64375;SDS011;50700;55.416;12.952;2023-05-23T11:07:36;6.07;;;3.97;;
64375;SDS011;50700;55.416;12.952;2023-05-23T11:10:03;7.60;;;4.15;;
64375;SDS011;50700;55.416;12.952;2023-05-23T11:12:39;6.65;;;4.30;;
64375;SDS011;50700;55.416;12.952;2023-05-23T11:15:27;5.55;;;4.22;;
64375;SDS011;50700;55.416;12.952;2023-05-23T11:17:53;7.50;;;4.88;;
64375;SDS011;50700;55.416;12.952;2023-05-23T11:20:21;9.27;;;4.47;;
64375;SDS011;50700;55.416;12.952;2023-05-23T11:22:57;8.98;;;4.30;;
64375;SDS011;50700;55.416;12.952;2023-05-23T11:28:29;6.70;;;4.60;;
64375;SDS011;50700;55.416;12.952;2023-05-23T11:30:55;6.25;;;4.22;;
64375;SDS011;50700;55.416;12.952;2023-05-23T11:33:22;5.35;;;4.20;;
64375;SDS011;50700;55.416;12.952;2023-05-23T11:35:48;9.13;;;5.18;;
64375;SDS011;50700;55.416;12.952;2023-05-23T11:38:16;6.32;;;4.57;;
64375;SDS011;50700;55.416;12.952;2023-05-23T11:40:43;10.45;;;5.32;;
64375;SDS011;50700;55.416;12.952;2023-05-23T11:43:13;6.82;;;4.47;;
64375;SDS011;50700;55.416;12.952;2023-05-23T11:45:41;8.93;;;4.85;;
64375;SDS011;50700;55.416;12.952;2023-05-23T11:48:10;7.72;;;5.05;;
64375;SDS011;50700;55.416;12.952;2023-05-23T11:50:44;8.02;;;5.13;;
64375;SDS011;50700;55.416;12.952;2023-05-23T11:53:11;9.82;;;5.03;;
64375;SDS011;50700;55.416;12.952;2023-05-23T11:55:38;8.15;;;5.28;;
64375;SDS011;50700;55.416;12.952;2023-05-23T11:58:05;9.38;;;5.18;;
64375;SDS011;50700;55.416;12.952;2023-05-23T12:00:32;8.70;;;4.97;;
64375;SDS011;50700;55.416;12.952;2023-05-23T12:02:58;6.53;;;5.18;;
64375;SDS011;50700;55.416;12.952;2023-05-23T12:05:32;10.02;;;6.07;;
64375;SDS011;50700;55.416;12.952;2023-05-23T12:07:58;8.77;;;5.57;;
64375;SDS011;50700;55.416;12.952;2023-05-23T12:10:25;9.10;;;4.90;;
64375;SDS011;50700;55.416;12.952;2023-05-23T12:12:52;9.40;;;5.63;;
64375;SDS011;50700;55.416;12.952;2023-05-23T12:15:23;11.20;;;6.07;;
64375;SDS011;50700;55.416;12.952;2023-05-23T12:17:52;10.88;;;5.43;;
64375;SDS011;50700;55.416;12.952;2023-05-23T12:20:19;9.68;;;5.70;;
64375;SDS011;50700;55.416;12.952;2023-05-23T12:22:45;7.30;;;5.55;;
64375;SDS011;50700;55.416;12.952;2023-05-23T12:25:11;9.20;;;5.20;;
64375;SDS011;50700;55.416;12.952;2023-05-23T12:27:39;11.48;;;5.30;;
64375;SDS011;50700;55.416;12.952;2023-05-23T12:30:12;8.77;;;6.10;;
64375;SDS011;50700;55.416;12.952;2023-05-23T12:32:40;12.15;;;5.90;;
64375;SDS011;50700;55.416;12.952;2023-05-23T12:35:07;10.10;;;5.40;;
64375;SDS011;50700;55.416;12.952;2023-05-23T12:37:33;8.52;;;5.68;;
64375;SDS011;50700;55.416;12.952;2023-05-23T12:40:12;11.48;;;6.35;;
64375;SDS011;50700;55.416;12.952;2023-05-23T12:42:55;9.10;;;5.60;;
64375;SDS011;50700;55.416;12.952;2023-05-23T12:45:22;11.52;;;6.22;;
64375;SDS011;50700;55.416;12.952;2023-05-23T12:47:49;10.32;;;5.80;;
64375;SDS011;50700;55.416;12.952;2023-05-23T12:50:15;8.23;;;6.13;;
64375;SDS011;50700;55.416;12.952;2023-05-23T12:52:41;13.75;;;6.22;;
64375;SDS011;50700;55.416;12.952;2023-05-23T12:55:08;9.02;;;5.40;;
64375;SDS011;50700;55.416;12.952;2023-05-23T12:57:34;8.77;;;5.20;;
64375;SDS011;50700;55.416;12.952;2023-05-23T13:00:00;8.68;;;5.45;;
64375;SDS011;50700;55.416;12.952;2023-05-23T13:02:27;6.65;;;5.35;;
64375;SDS011;50700;55.416;12.952;2023-05-23T13:04:53;8.80;;;5.05;;
64375;SDS011;50700;55.416;12.952;2023-05-23T13:07:20;9.00;;;5.28;;
64375;SDS011;50700;55.416;12.952;2023-05-23T13:09:46;7.85;;;5.03;;
64375;SDS011;50700;55.416;12.952;2023-05-23T13:12:12;11.35;;;5.47;;
64375;SDS011;50700;55.416;12.952;2023-05-23T13:14:40;7.78;;;4.50;;
64375;SDS011;50700;55.416;12.952;2023-05-23T13:17:06;6.82;;;4.50;;
64375;SDS011;50700;55.416;12.952;2023-05-23T13:19:32;9.48;;;5.68;;
64375;SDS011;50700;55.416;12.952;2023-05-23T13:21:58;8.18;;;5.35;;
64375;SDS011;50700;55.416;12.952;2023-05-23T13:24:25;7.32;;;4.85;;
64375;SDS011;50700;55.416;12.952;2023-05-23T13:26:52;9.30;;;5.28;;
64375;SDS011;50700;55.416;12.952;2023-05-23T13:29:18;9.75;;;5.47;;
64375;SDS011;50700;55.416;12.952;2023-05-23T13:31:44;8.65;;;5.53;;
64375;SDS011;50700;55.416;12.952;2023-05-23T13:34:11;8.15;;;5.07;;
64375;SDS011;50700;55.416;12.952;2023-05-23T13:36:37;10.32;;;5.10;;
64375;SDS011;50700;55.416;12.952;2023-05-23T13:39:03;9.70;;;5.63;;
64375;SDS011;50700;55.416;12.952;2023-05-23T13:41:29;6.30;;;4.53;;
64375;SDS011;50700;55.416;12.952;2023-05-23T13:43:56;7.03;;;5.57;;
64375;SDS011;50700;55.416;12.952;2023-05-23T13:46:22;7.35;;;4.68;;
64375;SDS011;50700;55.416;12.952;2023-05-23T13:48:48;8.63;;;5.80;;
64375;SDS011;50700;55.416;12.952;2023-05-23T13:51:14;6.93;;;5.03;;
64375;SDS011;50700;55.416;12.952;2023-05-23T13:53:40;10.13;;;5.70;;
64375;SDS011;50700;55.416;12.952;2023-05-23T13:56:07;8.93;;;5.80;;
64375;SDS011;50700;55.416;12.952;2023-05-23T13:58:34;9.18;;;5.85;;
64375;SDS011;50700;55.416;12.952;2023-05-23T14:01:00;10.65;;;6.18;;
64375;SDS011;50700;55.416;12.952;2023-05-23T14:03:26;11.95;;;6.43;;
64375;SDS011;50700;55.416;12.952;2023-05-23T14:05:53;10.57;;;5.93;;
64375;SDS011;50700;55.416;12.952;2023-05-23T14:08:19;9.70;;;6.07;;
64375;SDS011;50700;55.416;12.952;2023-05-23T14:10:45;7.05;;;5.82;;
64375;SDS011;50700;55.416;12.952;2023-05-23T14:13:11;11.05;;;6.07;;
64375;SDS011;50700;55.416;12.952;2023-05-23T14:15:38;9.73;;;6.13;;
64375;SDS011;50700;55.416;12.952;2023-05-23T14:18:06;10.05;;;6.50;;
64375;SDS011;50700;55.416;12.952;2023-05-23T14:20:32;9.18;;;5.47;;
64375;SDS011;50700;55.416;12.952;2023-05-23T14:22:58;8.43;;;5.20;;
64375;SDS011;50700;55.416;12.952;2023-05-23T14:25:24;7.65;;;4.65;;
64375;SDS011;50700;55.416;12.952;2023-05-23T14:27:52;8.05;;;4.90;;
64375;SDS011;50700;55.416;12.952;2023-05-23T14:30:18;7.13;;;3.83;;
64375;SDS011;50700;55.416;12.952;2023-05-23T14:32:44;6.30;;;4.07;;
64375;SDS011;50700;55.416;12.952;2023-05-23T14:35:11;5.72;;;4.43;;
64375;SDS011;50700;55.416;12.952;2023-05-23T14:37:37;5.22;;;4.10;;
64375;SDS011;50700;55.416;12.952;2023-05-23T14:40:04;8.50;;;3.85;;
64375;SDS011;50700;55.416;12.952;2023-05-23T14:42:31;7.35;;;4.60;;
64375;SDS011;50700;55.416;12.952;2023-05-23T14:44:57;5.60;;;3.63;;
64375;SDS011;50700;55.416;12.952;2023-05-23T14:47:23;9.32;;;4.68;;
64375;SDS011;50700;55.416;12.952;2023-05-23T14:49:49;9.23;;;4.97;;
64375;SDS011;50700;55.416;12.952;2023-05-23T14:52:15;8.02;;;4.50;;
64375;SDS011;50700;55.416;12.952;2023-05-23T14:54:42;6.38;;;4.53;;
64375;SDS011;50700;55.416;12.952;2023-05-23T14:57:08;5.70;;;4.72;;
64375;SDS011;50700;55.416;12.952;2023-05-23T14:59:35;8.10;;;4.18;;